Time;durP1;ratioP1;P1;durP2;ratioP2;P2;SDS_P1;SDS_P2;PMS_P1;PMS_P2;Temp;Humidity;BMP_temperature;BMP_pressure;BME280_temperature;BME280_humidity;BME280_pressure;Samples;Min_cycle;Max_cycle;Signal;HPM_P1;HPM_P2
2021/07/21 00:02:14;;;;;;;10.20;7.37;;;16.60;90.20;;;;;;5033570;28;20629;-89
2021/07/21 00:04:42;;;;;;;9.67;7.10;;;16.60;90.50;;;;;;5034301;28;20718;-89
2021/07/21 00:07:10;;;;;;;9.60;7.13;;;16.60;90.60;;;;;;5033817;28;21357;-90
2021/07/21 00:09:39;;;;;;;10.17;7.80;;;16.70;90.50;;;;;;5033934;28;20619;-90
2021/07/21 00:14:51;;;;;;;9.40;7.50;;;16.80;90.50;;;;;;5033996;28;20651;-90
2021/07/21 00:17:20;;;;;;;9.67;7.67;;;16.80;91.00;;;;;;5032606;28;20612;-90
2021/07/21 00:22:32;;;;;;;8.77;7.70;;;16.80;91.80;;;;;;5033791;28;20610;-89
2021/07/21 00:25:01;;;;;;;8.93;7.43;;;16.80;92.30;;;;;;5034053;28;20711;-91
2021/07/21 00:27:28;;;;;;;13.03;9.17;;;16.80;92.50;;;;;;5026612;28;21146;-90
2021/07/21 00:29:55;;;;;;;8.00;7.23;;;16.70;92.80;;;;;;5033878;28;20615;-90
2021/07/21 00:32:22;;;;;;;9.30;7.87;;;16.70;92.90;;;;;;5032872;28;20714;-91
2021/07/21 00:34:50;;;;;;;8.67;7.17;;;16.60;93.30;;;;;;5033101;28;20706;-90
2021/07/21 00:37:18;;;;;;;9.90;7.83;;;16.50;93.00;;;;;;5033353;28;20631;-90
2021/07/21 00:39:45;;;;;;;10.07;7.70;;;16.40;93.60;;;;;;5033283;28;21177;-89
2021/07/21 00:42:14;;;;;;;9.60;6.90;;;16.20;93.30;;;;;;5025568;28;20671;-89
2021/07/21 00:44:41;;;;;;;8.47;7.57;;;16.10;93.70;;;;;;5033431;28;20619;-89
2021/07/21 00:47:08;;;;;;;10.33;7.80;;;16.00;94.00;;;;;;5033088;28;20645;-90
2021/07/21 00:49:35;;;;;;;9.40;7.60;;;15.90;94.00;;;;;;5033412;28;20729;-89
2021/07/21 00:52:04;;;;;;;8.03;7.23;;;15.80;94.10;;;;;;5032661;28;21280;-90
2021/07/21 00:54:32;;;;;;;9.00;7.97;;;15.80;94.20;;;;;;5033583;28;20733;-89
2021/07/21 00:57:00;;;;;;;11.87;8.50;;;15.70;94.10;;;;;;5025945;28;20642;-89
2021/07/21 00:59:29;;;;;;;11.00;7.10;;;15.70;93.80;;;;;;5033412;28;20800;-89
2021/07/21 01:01:57;;;;;;;8.40;7.03;;;15.70;94.10;;;;;;5031602;28;20946;-90
2021/07/21 01:04:25;;;;;;;8.90;7.23;;;15.70;93.80;;;;;;5031815;28;20737;-89
2021/07/21 01:06:56;;;;;;;10.97;7.40;;;15.60;94.00;;;;;;5032369;28;20654;-90
2021/07/21 01:09:26;;;;;;;10.77;6.70;;;15.60;93.70;;;;;;5032445;28;20627;-89
2021/07/21 01:12:02;;;;;;;8.43;7.63;;;15.60;94.10;;;;;;5024401;28;20659;-90
2021/07/21 01:14:42;;;;;;;10.50;8.73;;;15.50;94.40;;;;;;5031933;28;20658;-90
2021/07/21 01:17:15;;;;;;;13.27;7.37;;;15.40;94.20;;;;;;5032891;28;20741;-90
2021/07/21 01:20:22;;;;;;;11.30;7.50;;;15.40;94.30;;;;;;5031343;28;20623;-90
2021/07/21 01:23:02;;;;;;;10.10;8.60;;;15.40;94.90;;;;;;5027689;28;20729;-90
2021/07/21 01:25:41;;;;;;;7.57;6.73;;;15.40;95.00;;;;;;5033369;28;20970;-90
2021/07/21 01:28:12;;;;;;;11.33;8.37;;;15.30;94.90;;;;;;5025485;28;20700;-91
2021/07/21 01:30:44;;;;;;;8.83;7.93;;;15.20;94.70;;;;;;5034827;28;20653;-91
2021/07/21 01:33:15;;;;;;;10.70;7.00;;;15.20;94.80;;;;;;5032264;28;20627;-91
2021/07/21 01:35:53;;;;;;;9.13;8.00;;;15.20;94.40;;;;;;5032899;28;20619;-91
2021/07/21 01:38:27;;;;;;;9.50;7.40;;;15.10;95.00;;;;;;5032959;28;20745;-90
2021/07/21 01:41:00;;;;;;;10.63;7.80;;;15.10;94.90;;;;;;5032619;28;21037;-90
2021/07/21 01:43:33;;;;;;;8.50;7.50;;;15.10;95.10;;;;;;5024885;28;20734;-91
2021/07/21 01:46:10;;;;;;;11.33;7.33;;;15.10;95.30;;;;;;5032538;28;20619;-91
2021/07/21 01:48:45;;;;;;;13.40;7.63;;;15.00;95.70;;;;;;5032130;28;21278;-90
2021/07/21 01:51:15;;;;;;;9.60;7.87;;;14.90;95.60;;;;;;5032364;28;20637;-91
2021/07/21 01:53:45;;;;;;;11.40;8.20;;;15.00;95.60;;;;;;5032917;28;21223;-91
2021/07/21 01:56:15;;;;;;;8.10;6.97;;;15.00;95.70;;;;;;5032109;28;21195;-91
2021/07/21 01:58:45;;;;;;;8.70;7.20;;;15.00;95.90;;;;;;5025131;28;20657;-91
2021/07/21 02:01:14;;;;;;;9.73;7.87;;;14.90;96.20;;;;;;5026746;28;20821;-90
2021/07/21 02:03:46;;;;;;;10.90;8.13;;;14.90;96.00;;;;;;5028878;28;20650;-91
2021/07/21 02:06:17;;;;;;;9.47;8.30;;;14.90;96.20;;;;;;5029371;28;20663;-90
2021/07/21 02:08:48;;;;;;;8.57;7.20;;;14.90;97.00;;;;;;5031853;28;20618;-91
2021/07/21 02:11:24;;;;;;;8.70;7.83;;;14.80;96.60;;;;;;5037144;28;20984;-90
2021/07/21 02:13:57;;;;;;;10.20;8.33;;;14.80;96.50;;;;;;5044626;28;20662;-91
2021/07/21 02:16:26;;;;;;;10.73;8.43;;;14.80;96.80;;;;;;5012020;28;20622;-91
2021/07/21 02:18:55;;;;;;;8.63;7.73;;;14.80;96.80;;;;;;5011640;28;21255;-91
2021/07/21 02:21:26;;;;;;;7.90;7.10;;;14.80;97.10;;;;;;5011633;28;20640;-91
2021/07/21 02:24:04;;;;;;;8.60;7.20;;;14.80;97.10;;;;;;5025422;28;20629;-91
2021/07/21 02:26:37;;;;;;;10.30;8.40;;;14.80;97.50;;;;;;5031321;28;20697;-91
2021/07/21 02:29:10;;;;;;;10.03;7.37;;;14.70;97.40;;;;;;5032010;28;20843;-91
2021/07/21 02:31:54;;;;;;;13.20;7.57;;;14.70;97.20;;;;;;5031347;28;20631;-91
2021/07/21 02:34:24;;;;;;;11.13;8.13;;;14.70;97.20;;;;;;5031792;28;20626;-91
2021/07/21 02:36:53;;;;;;;11.27;7.80;;;14.70;97.50;;;;;;5031553;28;20647;-92
2021/07/21 02:39:23;;;;;;;9.33;8.00;;;14.70;97.60;;;;;;5032170;28;20713;-92
2021/07/21 02:41:51;;;;;;;13.80;8.07;;;14.70;97.00;;;;;;5031245;28;20650;-93
2021/07/21 02:44:20;;;;;;;12.37;8.10;;;14.70;97.20;;;;;;5031455;28;20655;-91
2021/07/21 02:46:48;;;;;;;9.27;7.37;;;14.70;97.60;;;;;;5031515;28;20627;-94
2021/07/21 02:49:21;;;;;;;9.90;8.90;;;14.70;97.90;;;;;;5031407;28;20989;-92
2021/07/21 02:51:56;;;;;;;10.17;8.20;;;14.70;98.00;;;;;;5031074;28;20669;-92
2021/07/21 02:54:37;;;;;;;10.37;7.20;;;14.70;98.20;;;;;;5031436;28;20620;-92
2021/07/21 02:57:11;;;;;;;11.57;8.20;;;14.60;98.90;;;;;;5031558;28;20654;-93
2021/07/21 02:59:50;;;;;;;9.40;7.50;;;14.50;98.90;;;;;;5031834;28;20644;-92
2021/07/21 03:02:26;;;;;;;8.27;7.30;;;14.60;99.30;;;;;;5031255;28;21152;-93
2021/07/21 03:05:00;;;;;;;9.57;7.67;;;14.60;99.30;;;;;;5030878;28;20697;-94
2021/07/21 03:07:36;;;;;;;8.80;7.70;;;14.60;99.40;;;;;;5031345;28;20619;-92
2021/07/21 03:10:11;;;;;;;8.93;7.93;;;14.60;99.40;;;;;;5031393;28;20730;-93
2021/07/21 03:12:48;;;;;;;12.93;7.57;;;14.60;99.60;;;;;;5047434;28;20645;-92
2021/07/21 03:15:18;;;;;;;10.43;7.70;;;14.60;99.90;;;;;;5036884;28;20646;-93
2021/07/21 03:17:50;;;;;;;11.90;8.53;;;14.60;99.90;;;;;;5030892;28;20781;-93
2021/07/21 03:20:18;;;;;;;10.63;8.50;;;14.60;99.90;;;;;;5030965;28;20622;-93
2021/07/21 03:22:56;;;;;;;10.20;8.07;;;14.70;99.90;;;;;;5030928;28;20647;-93
2021/07/21 03:25:30;;;;;;;10.17;7.40;;;14.60;99.90;;;;;;5030745;28;20631;-93
2021/07/21 03:28:10;;;;;;;8.30;7.37;;;14.60;99.90;;;;;;5030393;28;20622;-92
2021/07/21 03:30:59;;;;;;;9.30;7.97;;;14.50;99.90;;;;;;5029972;28;20662;-93
2021/07/21 03:33:38;;;;;;;8.57;7.37;;;14.40;99.90;;;;;;5023942;28;20653;-93
2021/07/21 03:37:21;;;;;;;;;;;;;;;;;;;;;
2021/07/21 03:40:16;;;;;;;9.20;8.30;;;14.30;99.90;;;;;;5030925;28;20631;-92
2021/07/21 03:46:21;;;;;;;9.17;7.27;;;14.20;99.90;;;;;;5028824;28;20645;-92
2021/07/21 03:49:18;;;;;;;12.37;8.67;;;14.20;99.90;;;;;;5004943;28;20642;-92
2021/07/21 03:52:18;;;;;;;9.40;8.20;;;14.10;99.90;;;;;;5031110;28;21078;-93
2021/07/21 03:59:07;;;;;;;;;;;;;;;;;;;;;
2021/07/21 08:24:18;;;;;;;12.80;10.37;;;19.80;93.80;;;;;;4915534;29;20623;-93
2021/07/21 09:21:02;;;;;;;10.83;9.60;;;22.20;88.50;;;;;;4843143;29;20629;-96
2021/07/21 10:33:14;;;;;;;10.63;9.53;;;24.70;76.90;;;;;;4838081;29;20665;-94
2021/07/21 10:45:43;;;;;;;9.93;8.43;;;24.50;74.10;;;;;;4972676;28;20660;-93
2021/07/21 10:51:40;;;;;;;11.10;9.60;;;25.20;75.60;;;;;;5049868;28;21053;-93
2021/07/21 10:54:27;;;;;;;11.57;10.47;;;25.50;75.10;;;;;;5050670;28;20625;-93
2021/07/21 11:00:07;;;;;;;11.13;9.97;;;25.20;72.90;;;;;;5045086;28;20624;-92
2021/07/21 11:02:44;;;;;;;11.27;10.17;;;25.10;71.70;;;;;;5029593;28;20625;-93
2021/07/21 11:06:01;;;;;;;9.87;8.80;;;24.90;73.10;;;;;;5029919;28;20684;-93
2021/07/21 11:08:35;;;;;;;11.83;10.57;;;25.00;73.10;;;;;;5027000;28;21138;-92
2021/07/21 11:11:25;;;;;;;10.70;9.70;;;25.10;70.40;;;;;;5029232;28;20737;-93
2021/07/21 11:20:54;;;;;;;10.47;9.37;;;25.60;67.40;;;;;;5037733;28;20680;-94
2021/07/21 11:23:45;;;;;;;11.27;9.50;;;25.50;70.00;;;;;;5050353;28;20636;-89
2021/07/21 11:26:52;;;;;;;9.90;8.90;;;26.20;68.50;;;;;;5035328;28;20644;-93
2021/07/21 11:29:48;;;;;;;11.00;9.90;;;25.80;70.20;;;;;;5030480;28;20637;-92
2021/07/21 11:33:15;;;;;;;11.00;9.90;;;25.80;66.50;;;;;;5042009;28;20737;-93
2021/07/21 11:36:05;;;;;;;10.93;9.83;;;26.10;67.60;;;;;;5011890;28;21043;-94
2021/07/21 11:39:31;;;;;;;10.90;9.90;;;27.00;65.60;;;;;;5035035;28;21222;-94
2021/07/21 11:42:12;;;;;;;10.37;9.47;;;26.60;64.40;;;;;;5027827;28;20659;-93
2021/07/21 11:45:59;;;;;;;;;;;;;;;;;;;;;
2021/07/21 11:48:58;;;;;;;11.07;9.87;;;27.90;64.70;;;;;;5001185;28;20964;-93
2021/07/21 11:51:58;;;;;;;9.60;8.73;;;28.60;60.40;;;;;;5029257;28;20646;-93
2021/07/21 11:54:52;;;;;;;10.90;9.80;;;28.90;59.50;;;;;;5027107;28;20630;-93
2021/07/21 11:57:49;;;;;;;11.67;10.47;;;29.00;61.10;;;;;;5030595;28;20689;-94
2021/07/21 12:00:22;;;;;;;11.17;9.23;;;29.20;59.50;;;;;;5030047;28;20621;-93
2021/07/21 12:03:32;;;;;;;;;;;;;;;;;;;;;
2021/07/21 12:06:06;;;;;;;11.27;10.00;;;30.30;56.10;;;;;;5019511;28;20676;-92
2021/07/21 12:08:47;;;;;;;;;;;;;;;;;;;;;
2021/07/21 12:11:18;;;;;;;11.80;10.80;;;30.50;56.80;;;;;;5050477;28;20622;-93
2021/07/21 12:13:48;;;;;;;10.53;9.67;;;31.40;55.90;;;;;;5049699;28;20712;-92
2021/07/21 12:16:19;;;;;;;9.80;8.97;;;32.20;54.30;;;;;;5030284;28;20634;-95
2021/07/21 12:18:54;;;;;;;10.43;9.40;;;32.40;53.10;;;;;;5030632;28;20754;-91
2021/07/21 12:21:34;;;;;;;10.60;9.70;;;32.20;52.80;;;;;;5030028;28;20626;-90
2021/07/21 12:24:06;;;;;;;10.30;9.43;;;33.00;50.60;;;;;;5030463;28;20692;-92
2021/07/21 12:26:58;;;;;;;10.40;9.43;;;33.60;49.70;;;;;;5030176;28;20633;-92
2021/07/21 12:29:47;;;;;;;10.13;9.10;;;34.10;48.80;;;;;;5028940;28;20666;-93
2021/07/21 12:33:01;;;;;;;;;;;;;;;;;;;;;
2021/07/21 12:36:18;;;;;;;10.53;9.73;;;34.70;47.80;;;;;;4984391;28;20636;-93
2021/07/21 12:39:07;;;;;;;;;;;;;;;;;;;;;
2021/07/21 12:41:50;;;;;;;9.43;8.73;;;34.30;47.40;;;;;;5047736;28;20625;-94
2021/07/21 12:47:42;;;;;;;11.20;10.23;;;34.80;48.30;;;;;;5038666;28;20621;-92
2021/07/21 12:57:12;;;;;;;10.43;9.50;;;35.50;45.50;;;;;;5006685;28;20210;-94
2021/07/21 13:06:30;;;;;;;10.37;9.47;;;35.80;45.10;;;;;;5053358;28;20590;-92
2021/07/21 13:09:04;;;;;;;10.73;9.83;;;33.40;44.90;;;;;;5036123;28;21054;-92
2021/07/21 13:11:40;;;;;;;10.53;9.20;;;33.00;46.80;;;;;;5032305;28;21178;-92
2021/07/21 13:14:08;;;;;;;9.73;8.80;;;33.00;47.40;;;;;;5033660;28;20713;-92
2021/07/21 13:16:35;;;;;;;9.97;9.17;;;33.50;47.80;;;;;;5033442;28;20622;-92
2021/07/21 13:19:17;;;;;;;9.97;9.13;;;34.30;46.20;;;;;;5033107;28;20618;-93
2021/07/21 13:22:32;;;;;;;10.23;9.43;;;35.00;45.90;;;;;;5032710;28;20630;-92
2021/07/21 13:25:55;;;;;;;9.67;8.90;;;35.50;44.80;;;;;;4933175;29;20635;-93
2021/07/21 13:32:10;;;;;;;10.20;9.20;;;35.50;45.10;;;;;;5008168;28;21235;-92
2021/07/21 13:35:25;;;;;;;8.70;8.10;;;35.60;45.00;;;;;;5021437;28;20668;-92
2021/07/21 13:38:30;;;;;;;;;;;;;;;;;;;;;
2021/07/21 13:45:40;;;;;;;10.23;9.50;;;35.30;44.40;;;;;;4991930;28;20738;-93
2021/07/21 13:48:30;;;;;;;9.20;8.50;;;36.00;43.00;;;;;;5037952;28;20676;-92
2021/07/21 13:51:14;;;;;;;8.53;7.73;;;36.30;45.10;;;;;;5032405;28;20572;-91
2021/07/21 13:53:53;;;;;;;9.50;8.60;;;35.00;43.70;;;;;;5033219;28;20621;-92
2021/07/21 13:56:45;;;;;;;9.50;8.70;;;35.80;44.40;;;;;;5032603;28;20654;-92
2021/07/21 13:59:29;;;;;;;10.00;9.20;;;36.10;41.80;;;;;;5033039;28;20622;-94
2021/07/21 14:02:10;;;;;;;8.97;8.27;;;36.20;43.70;;;;;;5032552;28;21188;-91
2021/07/21 14:04:46;;;;;;;10.10;9.20;;;35.40;43.60;;;;;;5032405;28;20696;-92
2021/07/21 14:07:19;;;;;;;9.93;8.90;;;35.70;43.50;;;;;;5032113;28;20634;-92
2021/07/21 14:09:53;;;;;;;8.63;8.00;;;35.80;43.90;;;;;;5032147;28;20658;-92
2021/07/21 14:15:34;;;;;;;9.97;9.07;;;36.10;42.30;;;;;;5026463;28;20633;-91
2021/07/21 14:18:02;;;;;;;9.30;8.60;;;35.10;44.40;;;;;;5031642;28;20610;-91
2021/07/21 14:20:31;;;;;;;8.37;7.67;;;35.40;42.60;;;;;;5032152;28;20980;-91
2021/07/21 14:23:03;;;;;;;8.73;8.03;;;34.90;43.20;;;;;;5031452;28;21016;-91
2021/07/21 14:25:52;;;;;;;8.80;8.00;;;32.80;42.80;;;;;;5028252;28;20631;-94
2021/07/21 14:28:37;;;;;;;9.68;8.88;;;33.60;44.40;;;;;;5032260;28;20832;-95
2021/07/21 14:31:07;;;;;;;10.32;9.38;;;34.50;42.60;;;;;;5031732;28;21133;-93
2021/07/21 14:33:43;;;;;;;9.73;8.93;;;35.00;43.30;;;;;;5032737;28;20226;-94
2021/07/21 14:36:13;;;;;;;9.53;8.70;;;33.80;42.70;;;;;;5031704;28;20629;-93
2021/07/21 14:38:41;;;;;;;9.93;8.97;;;33.90;44.60;;;;;;5030417;28;21304;-92
2021/07/21 14:41:10;;;;;;;10.03;9.23;;;34.00;43.90;;;;;;5031625;28;20626;-94
2021/07/21 14:43:39;;;;;;;9.97;9.07;;;34.00;42.90;;;;;;5032154;28;20611;-92
2021/07/21 14:46:11;;;;;;;9.13;8.33;;;31.40;43.00;;;;;;5031200;28;20713;-92
2021/07/21 14:48:39;;;;;;;9.70;8.80;;;30.70;45.80;;;;;;5032149;28;20758;-93
2021/07/21 14:51:06;;;;;;;8.20;7.50;;;31.30;45.50;;;;;;5031282;28;20623;-93
2021/07/21 14:53:33;;;;;;;9.60;8.80;;;30.80;45.40;;;;;;5031742;28;20627;-93
2021/07/21 14:56:00;;;;;;;9.60;8.47;;;31.60;46.20;;;;;;5031963;28;20611;-93
2021/07/21 14:58:31;;;;;;;9.40;8.40;;;32.20;45.70;;;;;;5031829;28;21363;-94
2021/07/21 15:01:00;;;;;;;9.13;8.23;;;31.90;45.80;;;;;;5031550;28;20633;-93
2021/07/21 15:03:27;;;;;;;10.03;8.60;;;32.30;43.70;;;;;;5031749;28;20611;-94
2021/07/21 15:05:56;;;;;;;8.67;7.90;;;32.40;43.60;;;;;;5031159;28;20627;-92
2021/07/21 15:08:24;;;;;;;8.40;7.70;;;32.60;44.00;;;;;;5031070;28;20631;-92
2021/07/21 15:10:51;;;;;;;9.10;8.30;;;32.20;44.60;;;;;;5031343;28;20599;-91
2021/07/21 15:13:19;;;;;;;9.43;8.53;;;32.10;43.80;;;;;;5031662;28;21298;-91
2021/07/21 15:15:47;;;;;;;8.70;7.90;;;32.10;44.20;;;;;;5030951;28;21019;-91
2021/07/21 15:18:14;;;;;;;8.60;7.70;;;32.10;43.80;;;;;;5031199;28;21227;-91
2021/07/21 15:20:41;;;;;;;9.33;8.43;;;31.40;44.70;;;;;;5031833;28;20669;-91
2021/07/21 15:23:09;;;;;;;9.87;9.07;;;30.80;44.40;;;;;;5030623;28;21258;-91
2021/07/21 15:25:36;;;;;;;8.77;8.03;;;30.00;45.70;;;;;;5031407;28;20619;-92
2021/07/21 15:28:04;;;;;;;9.10;8.00;;;28.90;45.80;;;;;;5031020;28;20619;-90
2021/07/21 15:30:31;;;;;;;8.30;7.60;;;28.70;46.70;;;;;;5031089;28;20697;-91
2021/07/21 15:33:02;;;;;;;8.47;7.73;;;28.10;47.90;;;;;;5030102;28;20688;-91
2021/07/21 15:35:29;;;;;;;8.20;7.50;;;28.20;48.50;;;;;;5031131;28;20619;-90
2021/07/21 15:37:56;;;;;;;8.87;7.23;;;28.10;48.20;;;;;;5031355;28;20614;-90
2021/07/21 15:40:24;;;;;;;8.83;7.93;;;27.50;48.40;;;;;;5031108;28;20631;-89
2021/07/21 15:42:51;;;;;;;7.93;7.33;;;27.60;48.50;;;;;;5030480;28;20665;-90
2021/07/21 15:45:18;;;;;;;9.40;8.50;;;27.70;47.50;;;;;;5030018;28;20631;-90
2021/07/21 15:47:45;;;;;;;9.40;8.03;;;27.40;49.00;;;;;;5030876;28;20614;-90
2021/07/21 15:50:15;;;;;;;8.43;7.63;;;26.60;48.10;;;;;;5030593;28;20651;-90
2021/07/21 15:52:44;;;;;;;7.93;7.23;;;26.50;47.80;;;;;;5030352;28;20626;-89
2021/07/21 15:55:12;;;;;;;7.63;6.60;;;26.40;49.40;;;;;;5030730;28;20811;-89
2021/07/21 15:57:40;;;;;;;8.40;7.23;;;26.30;48.80;;;;;;5030545;28;20615;-89
2021/07/21 16:00:13;;;;;;;9.47;6.70;;;26.10;48.80;;;;;;5030144;28;21153;-89
2021/07/21 16:02:41;;;;;;;6.70;6.10;;;25.90;48.10;;;;;;5030141;28;20612;-89
2021/07/21 16:05:12;;;;;;;8.03;6.07;;;25.80;50.10;;;;;;5030449;28;20615;-88
2021/07/21 16:07:40;;;;;;;7.60;6.90;;;26.00;50.30;;;;;;5030513;28;20603;-89
2021/07/21 16:10:09;;;;;;;8.33;6.90;;;25.90;49.50;;;;;;5030119;28;20647;-89
2021/07/21 16:12:36;;;;;;;6.63;5.97;;;25.90;49.70;;;;;;5028691;28;20646;-88
2021/07/21 16:15:05;;;;;;;10.23;7.17;;;25.80;48.50;;;;;;5030475;28;20676;-90
2021/07/21 16:17:32;;;;;;;7.73;6.93;;;25.60;49.20;;;;;;5030317;28;20611;-87
2021/07/21 16:20:03;;;;;;;10.53;7.60;;;25.50;49.90;;;;;;5030357;28;20611;-90
2021/07/21 16:22:30;;;;;;;8.30;7.00;;;25.50;50.10;;;;;;5029795;28;20661;-88
2021/07/21 16:24:59;;;;;;;8.97;7.63;;;25.50;51.20;;;;;;5029822;28;20642;-89
2021/07/21 16:27:27;;;;;;;11.73;6.40;;;25.70;51.10;;;;;;5029986;28;20615;-89
2021/07/21 16:29:54;;;;;;;7.83;7.13;;;25.80;50.90;;;;;;5029890;28;20697;-88
2021/07/21 16:32:21;;;;;;;7.93;7.10;;;25.50;50.80;;;;;;5030158;28;20590;-88
2021/07/21 16:34:47;;;;;;;8.30;7.50;;;25.50;51.40;;;;;;5030143;28;21021;-88
2021/07/21 16:37:14;;;;;;;11.73;7.80;;;25.50;50.90;;;;;;5030699;28;20614;-88
2021/07/21 16:39:42;;;;;;;7.30;6.60;;;25.30;50.90;;;;;;5033380;28;20619;-89
2021/07/21 16:42:10;;;;;;;7.07;6.37;;;25.30;51.30;;;;;;5034231;28;20617;-89
2021/07/21 16:44:37;;;;;;;10.17;7.23;;;25.10;50.40;;;;;;5034131;28;20627;-88
2021/07/21 16:47:05;;;;;;;7.50;6.80;;;25.00;51.20;;;;;;5033274;28;20967;-90
2021/07/21 16:49:32;;;;;;;9.93;7.07;;;25.00;51.70;;;;;;5033702;28;20643;-88
2021/07/21 16:51:59;;;;;;;8.77;7.00;;;25.00;51.60;;;;;;5033028;28;20622;-88
2021/07/21 16:54:25;;;;;;;7.10;6.40;;;25.00;52.60;;;;;;5033464;28;20607;-88
2021/07/21 16:56:52;;;;;;;7.80;7.00;;;25.00;52.30;;;;;;5033363;28;21181;-87
2021/07/21 16:59:21;;;;;;;6.73;6.13;;;24.90;52.20;;;;;;5033509;28;20618;-87
2021/07/21 17:01:49;;;;;;;9.10;7.23;;;24.90;52.10;;;;;;5033459;28;20607;-88
2021/07/21 17:04:16;;;;;;;7.70;6.87;;;24.90;52.50;;;;;;5033372;28;20618;-87
2021/07/21 17:06:42;;;;;;;8.80;6.83;;;24.90;52.80;;;;;;5033158;28;20613;-88
2021/07/21 17:09:09;;;;;;;7.93;7.00;;;24.80;52.70;;;;;;5030445;28;20618;-88
2021/07/21 17:11:36;;;;;;;7.67;6.97;;;24.80;53.20;;;;;;5012630;28;20957;-87
2021/07/21 17:14:05;;;;;;;8.07;6.77;;;24.80;53.20;;;;;;5024866;28;21351;-87
2021/07/21 17:16:34;;;;;;;9.03;7.10;;;24.70;53.30;;;;;;5032311;28;21076;-87
2021/07/21 17:19:01;;;;;;;7.13;6.47;;;24.60;52.80;;;;;;5028067;28;20615;-87
2021/07/21 17:21:29;;;;;;;7.57;6.87;;;24.40;52.40;;;;;;5021611;28;21195;-88
2021/07/21 17:23:56;;;;;;;6.90;6.30;;;24.60;53.70;;;;;;5026215;28;20633;-87
2021/07/21 17:26:23;;;;;;;7.60;6.87;;;24.60;53.90;;;;;;5037183;28;21000;-87
2021/07/21 17:28:50;;;;;;;7.47;6.77;;;24.50;53.60;;;;;;5037736;28;20643;-88
2021/07/21 17:31:17;;;;;;;7.63;6.93;;;24.40;53.50;;;;;;5032013;28;20654;-87
2021/07/21 17:33:45;;;;;;;8.53;7.07;;;24.40;53.70;;;;;;5030781;28;20684;-88
2021/07/21 17:36:15;;;;;;;7.30;6.70;;;24.30;53.20;;;;;;5032121;28;20634;-87
2021/07/21 17:38:42;;;;;;;9.20;6.67;;;24.10;53.80;;;;;;5014767;28;20630;-88
2021/07/21 17:41:09;;;;;;;9.17;8.27;;;24.00;53.40;;;;;;5028008;28;20625;-88
2021/07/21 17:43:36;;;;;;;8.13;7.33;;;24.00;54.20;;;;;;5031007;28;20672;-88
2021/07/21 17:46:03;;;;;;;8.37;6.60;;;24.00;54.00;;;;;;5027398;28;20625;-88
2021/07/21 17:48:30;;;;;;;7.23;6.53;;;24.00;54.40;;;;;;5013875;28;20623;-89
2021/07/21 17:50:58;;;;;;;9.73;6.60;;;23.90;53.70;;;;;;5019264;28;20724;-88
2021/07/21 17:53:25;;;;;;;7.33;6.63;;;23.90;53.50;;;;;;5023440;28;21272;-88
2021/07/21 17:55:54;;;;;;;8.63;6.17;;;23.80;53.20;;;;;;5052511;28;20625;-86
2021/07/21 17:58:21;;;;;;;7.40;6.70;;;23.60;53.60;;;;;;5044963;28;20681;-87
2021/07/21 18:00:48;;;;;;;7.53;6.60;;;23.60;54.50;;;;;;5031992;28;20614;-88
2021/07/21 18:03:15;;;;;;;7.40;6.10;;;23.60;55.50;;;;;;5044366;28;21014;-87
2021/07/21 18:05:42;;;;;;;6.87;6.17;;;23.50;55.90;;;;;;5052335;28;20605;-88
2021/07/21 18:08:10;;;;;;;7.93;7.20;;;23.40;55.90;;;;;;5052346;28;20616;-87
2021/07/21 18:10:38;;;;;;;6.33;5.73;;;23.40;55.00;;;;;;5052265;28;21282;-87
2021/07/21 18:13:05;;;;;;;6.57;5.73;;;23.40;55.40;;;;;;5051628;28;20819;-87
2021/07/21 18:15:32;;;;;;;12.67;6.80;;;23.30;54.60;;;;;;5036830;28;20690;-87
2021/07/21 18:17:59;;;;;;;8.87;7.43;;;23.20;54.60;;;;;;5032194;28;20671;-87
2021/07/21 18:20:26;;;;;;;6.77;6.20;;;23.10;55.90;;;;;;5032026;28;20607;-88
2021/07/21 18:22:53;;;;;;;9.83;6.90;;;23.10;56.70;;;;;;5031741;28;20651;-88
2021/07/21 18:25:21;;;;;;;7.00;5.63;;;23.10;56.50;;;;;;5031222;28;20661;-87
2021/07/21 18:27:49;;;;;;;6.37;5.70;;;23.10;55.60;;;;;;5029519;28;20614;-87
2021/07/21 18:30:17;;;;;;;9.97;6.43;;;23.00;56.30;;;;;;5031162;28;20669;-87
2021/07/21 18:32:45;;;;;;;11.23;5.70;;;23.00;56.90;;;;;;5024955;28;20625;-87
2021/07/21 18:35:12;;;;;;;6.03;5.43;;;22.80;56.80;;;;;;5023004;28;20613;-87
2021/07/21 18:37:40;;;;;;;13.00;6.87;;;22.70;56.50;;;;;;5014281;28;20733;-87
2021/07/21 18:40:08;;;;;;;7.80;6.00;;;22.60;57.10;;;;;;5021587;28;20690;-87
2021/07/21 18:42:36;;;;;;;7.37;6.67;;;22.60;57.10;;;;;;5027495;28;20632;-87
2021/07/21 18:45:04;;;;;;;7.33;6.63;;;22.60;58.20;;;;;;5026001;28;20633;-87
2021/07/21 18:47:32;;;;;;;6.73;6.10;;;22.50;57.80;;;;;;5025022;28;20722;-87
2021/07/21 18:49:58;;;;;;;9.20;6.87;;;22.40;58.70;;;;;;5024624;28;21274;-88
2021/07/21 18:52:25;;;;;;;6.70;6.00;;;22.20;59.30;;;;;;5025779;28;20627;-87
2021/07/21 18:54:53;;;;;;;7.30;6.60;;;22.00;60.10;;;;;;5025091;28;21225;-87
2021/07/21 18:57:20;;;;;;;6.10;5.60;;;21.90;60.00;;;;;;5011956;28;20729;-88
2021/07/21 18:59:51;;;;;;;7.20;6.20;;;21.90;60.20;;;;;;5026550;28;20605;-88
2021/07/21 19:02:18;;;;;;;6.77;6.20;;;21.80;61.10;;;;;;5027173;28;20718;-87
2021/07/21 19:04:45;;;;;;;7.73;7.00;;;21.80;61.20;;;;;;5028532;28;20621;-88
2021/07/21 19:07:12;;;;;;;7.07;6.20;;;21.80;59.80;;;;;;5029822;28;20610;-87
2021/07/21 19:09:39;;;;;;;6.87;6.27;;;21.60;60.60;;;;;;5027579;28;20661;-88
2021/07/21 19:12:07;;;;;;;6.77;6.17;;;21.70;59.30;;;;;;5029503;28;20675;-88
2021/07/21 19:14:35;;;;;;;6.50;5.90;;;21.60;61.50;;;;;;5027267;28;20707;-87
2021/07/21 19:17:03;;;;;;;7.00;6.40;;;21.50;59.90;;;;;;5030035;28;20716;-88
2021/07/21 19:19:30;;;;;;;7.37;6.70;;;21.40;61.30;;;;;;5030193;28;20653;-87
2021/07/21 19:21:57;;;;;;;7.03;6.33;;;21.40;61.20;;;;;;5018345;28;20615;-87
2021/07/21 19:24:24;;;;;;;7.00;6.30;;;21.40;61.90;;;;;;5027512;28;20675;-87
2021/07/21 19:26:51;;;;;;;7.43;6.73;;;21.20;61.70;;;;;;5019879;28;20635;-87
2021/07/21 19:29:18;;;;;;;7.43;6.73;;;21.00;63.20;;;;;;5025046;28;20646;-88
2021/07/21 19:31:45;;;;;;;7.30;6.60;;;20.90;63.20;;;;;;5030427;28;21243;-87
2021/07/21 19:34:13;;;;;;;6.60;5.93;;;20.80;65.10;;;;;;5023190;28;20631;-87
2021/07/21 19:36:40;;;;;;;7.93;7.13;;;20.70;64.60;;;;;;5027697;28;20624;-87
2021/07/21 19:39:13;;;;;;;11.30;6.13;;;20.70;66.30;;;;;;5010823;28;20631;-87
2021/07/21 19:41:40;;;;;;;8.90;6.90;;;20.80;67.10;;;;;;5010751;28;20616;-88
2021/07/21 19:44:09;;;;;;;10.43;7.13;;;20.70;67.40;;;;;;5030456;28;20611;-88
2021/07/21 19:46:37;;;;;;;9.00;6.47;;;20.60;67.70;;;;;;5016397;28;20632;-87
2021/07/21 19:49:04;;;;;;;7.63;6.80;;;20.40;67.90;;;;;;5029005;28;20627;-86
2021/07/21 19:51:32;;;;;;;8.00;7.00;;;20.40;68.40;;;;;;5015050;28;20713;-87
2021/07/21 19:53:59;;;;;;;12.00;6.50;;;20.40;69.50;;;;;;5010715;28;21137;-86
2021/07/21 19:56:26;;;;;;;8.37;7.33;;;20.30;70.20;;;;;;5023916;28;20619;-87
2021/07/21 19:58:53;;;;;;;12.50;8.63;;;20.30;70.00;;;;;;5030483;28;20967;-87
2021/07/21 20:01:20;;;;;;;12.10;8.67;;;20.30;70.00;;;;;;5028350;28;20626;-87
2021/07/21 20:03:48;;;;;;;11.33;7.93;;;20.20;71.00;;;;;;5046117;28;21171;-86
2021/07/21 20:06:16;;;;;;;12.70;9.10;;;20.20;71.60;;;;;;5036487;28;20694;-88
2021/07/21 20:08:46;;;;;;;13.10;9.03;;;20.20;71.50;;;;;;5030371;28;20615;-87
2021/07/21 20:11:13;;;;;;;12.47;9.23;;;20.20;72.30;;;;;;5020010;28;20670;-87
2021/07/21 20:13:44;;;;;;;14.30;9.17;;;20.00;71.80;;;;;;5024069;28;20731;-87
2021/07/21 20:16:11;;;;;;;11.77;8.57;;;20.00;72.70;;;;;;5033097;28;21321;-88
2021/07/21 20:18:39;;;;;;;16.63;9.57;;;20.00;73.20;;;;;;5033239;28;20677;-88
2021/07/21 20:21:09;;;;;;;14.20;10.10;;;20.00;73.50;;;;;;5033276;28;20627;-88
2021/07/21 20:23:36;;;;;;;20.90;11.00;;;20.00;75.10;;;;;;5034060;28;20602;-88
2021/07/21 20:26:04;;;;;;;15.67;10.87;;;20.00;74.30;;;;;;5025313;28;21114;-88
2021/07/21 20:28:31;;;;;;;13.10;9.23;;;20.00;75.10;;;;;;5014218;28;20620;-88
2021/07/21 20:31:01;;;;;;;12.03;8.20;;;19.90;74.20;;;;;;5021057;28;20782;-88
2021/07/21 20:33:28;;;;;;;15.70;8.70;;;19.90;74.40;;;;;;5034598;28;20655;-88
2021/07/21 20:35:55;;;;;;;11.33;8.10;;;19.90;74.40;;;;;;5028396;28;20627;-88
2021/07/21 20:38:22;;;;;;;11.07;7.50;;;19.90;74.40;;;;;;5015456;28;20624;-87
2021/07/21 20:40:50;;;;;;;8.63;7.70;;;19.80;74.80;;;;;;5019912;28;20607;-87
2021/07/21 20:43:21;;;;;;;11.90;8.70;;;19.80;76.00;;;;;;5035211;28;20626;-88
2021/07/21 20:45:49;;;;;;;9.10;8.20;;;19.70;76.50;;;;;;5028127;28;20684;-88
2021/07/21 20:48:16;;;;;;;14.03;9.60;;;19.70;76.80;;;;;;5014603;28;20632;-89
2021/07/21 20:50:43;;;;;;;9.87;7.73;;;19.60;77.10;;;;;;5017387;28;20659;-88
2021/07/21 20:53:10;;;;;;;17.07;8.93;;;19.60;78.20;;;;;;5034685;28;21139;-88
2021/07/21 20:55:40;;;;;;;14.43;7.63;;;19.60;78.10;;;;;;5031292;28;20634;-87
2021/07/21 20:58:07;;;;;;;11.40;8.83;;;19.60;79.30;;;;;;5014365;28;20617;-88